Time;durP1;ratioP1;P1;durP2;ratioP2;P2;SDS_P1;SDS_P2;PMS_P1;PMS_P2;Temp;Humidity;BMP_temperature;BMP_pressure;BME280_temperature;BME280_humidity;BME280_pressure;Samples;Min_cycle;Max_cycle;Signal;HPM_P1;HPM_P2
2022/04/08 00:02:50;;;;;;;0.80;0.40;;;19.50;45.80;;;;;;6196754;28;20023;-68
2022/04/08 00:05:52;;;;;;;0.65;0.32;;;19.50;45.90;;;;;;6196681;28;20074;-68
2022/04/08 00:08:52;;;;;;;0.35;0.22;;;19.50;45.80;;;;;;6197038;28;20577;-66
2022/04/08 00:11:53;;;;;;;0.93;0.50;;;19.50;45.70;;;;;;6196816;28;20037;-66
2022/04/08 00:14:53;;;;;;;0.40;0.30;;;19.40;45.60;;;;;;6195769;28;20026;-66
2022/04/08 00:17:54;;;;;;;1.08;0.43;;;19.40;45.60;;;;;;6196436;28;20261;-66
2022/04/08 00:20:54;;;;;;;0.73;0.40;;;19.40;45.60;;;;;;6196090;28;20080;-66
2022/04/08 00:23:55;;;;;;;0.65;0.30;;;19.50;45.70;;;;;;6195866;28;20038;-66
2022/04/08 00:26:55;;;;;;;1.20;0.40;;;19.50;45.70;;;;;;6196022;28;20440;-66
2022/04/08 00:29:56;;;;;;;1.00;0.45;;;19.40;45.60;;;;;;6195826;28;20166;-66
2022/04/08 00:32:57;;;;;;;0.55;0.30;;;19.40;45.60;;;;;;6195843;28;20046;-66
2022/04/08 00:35:57;;;;;;;1.83;0.57;;;19.50;45.60;;;;;;6195447;28;20077;-66
2022/04/08 00:38:58;;;;;;;0.40;0.20;;;19.40;45.50;;;;;;6195822;28;20088;-66
2022/04/08 00:42:01;;;;;;;0.98;0.40;;;19.40;45.70;;;;;;6195664;28;20029;-66
2022/04/08 00:45:03;;;;;;;2.13;0.47;;;19.50;45.60;;;;;;6195173;28;20077;-66
2022/04/08 00:48:07;;;;;;;1.13;0.43;;;19.50;45.60;;;;;;6195624;28;20030;-66
2022/04/08 00:51:09;;;;;;;0.77;0.35;;;19.40;45.60;;;;;;6195410;28;20085;-66
2022/04/08 00:54:10;;;;;;;1.38;0.35;;;19.40;45.50;;;;;;6195177;28;20038;-66
2022/04/08 00:57:11;;;;;;;1.10;0.50;;;19.50;45.40;;;;;;6194904;28;20467;-66
2022/04/08 01:00:11;;;;;;;0.32;0.20;;;19.50;45.40;;;;;;6195329;28;20034;-66
2022/04/08 01:03:12;;;;;;;0.50;0.30;;;19.50;45.40;;;;;;6195203;28;20041;-68
2022/04/08 01:06:12;;;;;;;1.45;0.40;;;19.50;45.40;;;;;;6194788;28;20551;-68
2022/04/08 01:09:14;;;;;;;1.35;0.50;;;19.50;45.40;;;;;;6195173;28;20485;-68
2022/04/08 01:12:15;;;;;;;0.38;0.30;;;19.50;45.40;;;;;;6195322;28;20042;-68
2022/04/08 01:15:17;;;;;;;1.13;0.40;;;19.50;45.70;;;;;;6194629;28;20112;-68
2022/04/08 01:18:18;;;;;;;1.63;0.38;;;19.50;45.50;;;;;;6194550;28;20483;-68
2022/04/08 01:21:18;;;;;;;1.27;0.30;;;19.50;45.50;;;;;;6194906;28;20120;-68
2022/04/08 01:24:21;;;;;;;0.73;0.22;;;19.50;45.50;;;;;;6194617;28;20138;-68
2022/04/08 01:27:22;;;;;;;0.45;0.25;;;19.50;45.60;;;;;;6194392;28;20035;-68
2022/04/08 01:30:22;;;;;;;0.50;0.30;;;19.50;45.50;;;;;;6194097;28;20117;-68
2022/04/08 01:33:23;;;;;;;1.35;0.40;;;19.50;45.50;;;;;;6194374;28;20659;-68
2022/04/08 01:36:24;;;;;;;0.60;0.13;;;19.50;45.50;;;;;;6193883;28;20061;-68
2022/04/08 01:39:24;;;;;;;0.68;0.40;;;19.50;45.50;;;;;;6194863;28;20486;-68
2022/04/08 01:42:25;;;;;;;0.65;0.38;;;19.50;45.40;;;;;;6194442;28;20473;-68
2022/04/08 01:45:25;;;;;;;0.75;0.32;;;19.50;45.50;;;;;;6194048;28;20026;-68
2022/04/08 01:48:26;;;;;;;0.77;0.45;;;19.50;45.60;;;;;;6193969;28;20027;-68
2022/04/08 01:51:27;;;;;;;0.47;0.30;;;19.50;45.60;;;;;;6194518;28;20030;-68
2022/04/08 01:54:27;;;;;;;0.90;0.30;;;19.50;45.70;;;;;;6194159;28;20029;-68
2022/04/08 01:57:29;;;;;;;1.15;0.40;;;19.50;45.60;;;;;;6192268;28;20037;-68
2022/04/08 02:00:31;;;;;;;0.70;0.30;;;19.50;45.60;;;;;;6194153;28;20022;-68
2022/04/08 02:03:32;;;;;;;0.75;0.40;;;19.50;45.60;;;;;;6194641;28;20027;-68
2022/04/08 02:06:36;;;;;;;0.70;0.20;;;19.50;45.80;;;;;;6194101;28;20037;-68
2022/04/08 02:09:37;;;;;;;0.10;0.10;;;19.50;45.60;;;;;;6194432;28;20413;-68
2022/04/08 02:12:37;;;;;;;3.03;0.32;;;19.50;45.70;;;;;;6193955;28;20034;-68
2022/04/08 02:15:38;;;;;;;2.05;0.32;;;19.50;45.60;;;;;;6193636;28;20030;-68
2022/04/08 02:18:38;;;;;;;0.30;0.22;;;19.50;45.70;;;;;;6198339;28;20036;-68
2022/04/08 02:21:39;;;;;;;0.75;0.30;;;19.50;45.70;;;;;;6198957;28;20552;-68
2022/04/08 02:24:40;;;;;;;0.45;0.30;;;19.50;45.60;;;;;;6198643;28;20022;-68
2022/04/08 02:27:41;;;;;;;0.47;0.30;;;19.50;45.50;;;;;;6198494;28;20049;-68
2022/04/08 02:30:41;;;;;;;0.20;0.20;;;19.50;45.60;;;;;;6198268;28;20049;-68
2022/04/08 02:33:42;;;;;;;0.47;0.20;;;19.50;45.70;;;;;;6198733;28;20142;-68
2022/04/08 02:36:42;;;;;;;0.20;0.20;;;19.50;45.90;;;;;;6198256;28;20066;-68
2022/04/08 02:39:43;;;;;;;0.50;0.20;;;19.50;45.80;;;;;;6198305;28;20209;-68
2022/04/08 02:42:43;;;;;;;0.52;0.30;;;19.50;45.70;;;;;;6198188;28;20027;-68
2022/04/08 02:45:44;;;;;;;0.73;0.20;;;19.50;45.50;;;;;;6198284;28;20101;-68
2022/04/08 02:48:44;;;;;;;0.40;0.20;;;19.50;45.90;;;;;;6197801;28;20080;-68
2022/04/08 02:51:45;;;;;;;0.20;0.20;;;19.50;45.60;;;;;;6198313;28;20030;-68
2022/04/08 02:54:45;;;;;;;0.15;0.15;;;19.50;45.60;;;;;;6197897;28;20026;-68
2022/04/08 02:57:47;;;;;;;0.30;0.30;;;19.50;45.40;;;;;;6197931;28;20037;-68
2022/04/08 03:00:48;;;;;;;0.77;0.20;;;19.40;45.50;;;;;;6197865;28;20477;-68
2022/04/08 03:03:50;;;;;;;0.50;0.28;;;19.50;45.60;;;;;;6197725;28;20027;-68
2022/04/08 03:06:50;;;;;;;0.40;0.30;;;19.50;45.60;;;;;;6197921;28;20525;-68
2022/04/08 03:09:51;;;;;;;0.22;0.17;;;19.40;45.50;;;;;;6197506;28;20068;-68
2022/04/08 03:12:51;;;;;;;0.50;0.30;;;19.50;45.60;;;;;;6197694;28;20113;-68
2022/04/08 03:15:52;;;;;;;0.82;0.30;;;19.40;45.80;;;;;;6197420;28;20189;-68
2022/04/08 03:18:53;;;;;;;1.05;0.30;;;19.40;45.60;;;;;;6197418;28;20025;-68
2022/04/08 03:21:54;;;;;;;0.30;0.20;;;19.40;45.60;;;;;;6197508;28;20480;-66
2022/04/08 03:24:54;;;;;;;0.20;0.10;;;19.40;45.30;;;;;;6197335;28;20423;-68
2022/04/08 03:27:55;;;;;;;0.63;0.30;;;19.50;45.50;;;;;;6197229;28;20066;-68
2022/04/08 03:30:55;;;;;;;0.45;0.20;;;19.50;45.60;;;;;;6195380;28;20077;-68
2022/04/08 03:33:56;;;;;;;0.50;0.30;;;19.50;45.60;;;;;;6197432;28;20031;-68
2022/04/08 03:36:57;;;;;;;0.43;0.22;;;19.40;45.50;;;;;;6197070;28;20044;-68
2022/04/08 03:39:57;;;;;;;0.40;0.30;;;19.40;45.60;;;;;;6197093;28;20037;-68
2022/04/08 03:42:57;;;;;;;0.52;0.20;;;19.40;45.50;;;;;;6196687;28;20053;-68
2022/04/08 03:45:58;;;;;;;0.40;0.20;;;19.50;45.60;;;;;;6196963;28;20406;-68
2022/04/08 03:48:58;;;;;;;0.88;0.30;;;19.50;45.60;;;;;;6195309;28;20112;-68
2022/04/08 03:52:00;;;;;;;0.65;0.20;;;19.40;45.60;;;;;;6196906;28;20109;-68
2022/04/08 03:55:02;;;;;;;0.50;0.22;;;19.40;45.60;;;;;;6196344;28;20129;-68
2022/04/08 03:58:02;;;;;;;0.20;0.20;;;19.40;45.50;;;;;;6196570;28;20062;-68
2022/04/08 04:01:03;;;;;;;0.38;0.20;;;19.40;45.50;;;;;;6196291;28;20088;-68
2022/04/08 04:04:04;;;;;;;1.38;0.38;;;19.50;45.50;;;;;;6196489;28;20023;-68
2022/04/08 04:07:04;;;;;;;0.17;0.13;;;19.40;45.50;;;;;;6196121;28;20022;-68
2022/04/08 04:10:07;;;;;;;0.60;0.30;;;19.40;46.20;;;;;;6196087;28;20026;-68
2022/04/08 04:13:07;;;;;;;0.85;0.30;;;19.40;45.50;;;;;;6196347;28;20556;-68
2022/04/08 04:16:08;;;;;;;0.15;0.15;;;19.40;45.60;;;;;;6195958;28;20046;-68
2022/04/08 04:19:08;;;;;;;0.43;0.25;;;19.50;45.50;;;;;;6195848;28;20034;-68
2022/04/08 04:22:09;;;;;;;1.17;0.40;;;19.50;45.60;;;;;;6196084;28;20030;-68
2022/04/08 04:25:09;;;;;;;0.40;0.20;;;19.50;45.90;;;;;;6196135;28;20561;-69
2022/04/08 04:28:10;;;;;;;0.50;0.30;;;19.50;45.50;;;;;;6195695;28;20057;-69
2022/04/08 04:31:10;;;;;;;0.55;0.45;;;19.50;45.50;;;;;;6195548;28;20109;-68
2022/04/08 04:34:11;;;;;;;0.65;0.20;;;19.50;45.50;;;;;;6195847;28;20133;-68
2022/04/08 04:37:12;;;;;;;0.30;0.30;;;19.50;45.50;;;;;;6195123;28;20066;-69
2022/04/08 04:40:12;;;;;;;0.40;0.28;;;19.50;45.60;;;;;;6194573;28;20030;-69
2022/04/08 04:43:13;;;;;;;0.47;0.32;;;19.50;45.60;;;;;;6194972;28;20019;-69
2022/04/08 04:46:13;;;;;;;0.95;0.38;;;19.50;45.60;;;;;;6195799;28;20470;-69
2022/04/08 04:49:14;;;;;;;0.40;0.30;;;19.50;45.50;;;;;;6195215;28;20113;-68
2022/04/08 04:52:15;;;;;;;0.68;0.30;;;19.50;45.60;;;;;;6195339;28;20034;-69
2022/04/08 04:55:15;;;;;;;1.05;0.32;;;19.50;45.60;;;;;;6195008;28;20034;-69
2022/04/08 04:58:16;;;;;;;1.02;0.30;;;19.50;45.60;;;;;;6195283;28;20026;-69
2022/04/08 05:01:16;;;;;;;0.30;0.30;;;19.50;45.50;;;;;;6191158;28;20077;-69
2022/04/08 05:04:17;;;;;;;0.60;0.40;;;19.50;45.60;;;;;;6170924;28;20038;-69
2022/04/08 05:07:17;;;;;;;0.50;0.30;;;19.50;45.60;;;;;;6182097;28;20088;-69
2022/04/08 05:10:18;;;;;;;1.38;0.40;;;19.50;45.60;;;;;;6194645;28;20018;-69
2022/04/08 05:13:18;;;;;;;0.57;0.30;;;19.50;45.50;;;;;;6194665;28;20110;-69
2022/04/08 05:16:19;;;;;;;1.30;0.50;;;19.50;45.60;;;;;;6194570;28;20034;-67
2022/04/08 05:19:19;;;;;;;0.82;0.60;;;19.50;45.40;;;;;;6195276;28;20030;-67
2022/04/08 05:22:20;;;;;;;0.22;0.20;;;19.50;45.50;;;;;;6180645;28;20034;-66
2022/04/08 05:25:21;;;;;;;1.02;0.50;;;19.50;45.60;;;;;;6192992;28;20033;-66
2022/04/08 05:28:21;;;;;;;0.38;0.38;;;19.50;45.60;;;;;;6194822;28;20065;-67
2022/04/08 05:31:21;;;;;;;0.88;0.40;;;19.50;45.70;;;;;;6196292;28;20029;-67
2022/04/08 05:34:22;;;;;;;0.60;0.30;;;19.50;45.70;;;;;;6193015;28;20298;-68
2022/04/08 05:37:23;;;;;;;1.50;0.40;;;19.50;45.80;;;;;;6193048;28;20030;-69
2022/04/08 05:40:23;;;;;;;1.15;0.43;;;19.50;45.80;;;;;;6192327;28;20089;-69
2022/04/08 05:43:24;;;;;;;0.85;0.30;;;19.50;45.80;;;;;;6192738;28;20101;-69
2022/04/08 05:46:24;;;;;;;1.20;0.38;;;19.50;45.90;;;;;;6192864;28;20488;-69
2022/04/08 05:49:25;;;;;;;1.20;0.60;;;19.50;45.80;;;;;;6192701;28;20416;-68
2022/04/08 05:52:26;;;;;;;0.43;0.32;;;19.50;45.80;;;;;;6192528;28;20026;-68
2022/04/08 05:55:26;;;;;;;0.65;0.40;;;19.50;45.80;;;;;;6193012;28;20031;-69
2022/04/08 05:58:27;;;;;;;1.00;0.50;;;19.50;45.80;;;;;;6192777;28;20023;-69
2022/04/08 06:01:28;;;;;;;0.90;0.50;;;19.50;45.80;;;;;;6187419;28;20105;-69
2022/04/08 06:04:28;;;;;;;0.57;0.35;;;19.50;45.80;;;;;;6194246;28;20026;-69
2022/04/08 06:07:29;;;;;;;1.05;0.60;;;19.50;45.90;;;;;;6195119;28;20030;-69
2022/04/08 06:10:30;;;;;;;1.13;0.60;;;19.50;45.90;;;;;;6194877;28;20116;-69
2022/04/08 06:13:30;;;;;;;6.35;0.60;;;19.50;45.90;;;;;;6194526;28;20105;-69
2022/04/08 06:16:31;;;;;;;4.80;0.70;;;19.50;45.90;;;;;;6194485;28;20192;-69
2022/04/08 06:19:31;;;;;;;0.70;0.40;;;19.50;45.90;;;;;;6194458;28;20027;-69
2022/04/08 06:22:32;;;;;;;1.80;0.50;;;19.50;45.90;;;;;;6194209;28;20022;-69
2022/04/08 06:25:32;;;;;;;5.40;0.70;;;19.50;45.90;;;;;;6194442;28;20030;-69
2022/04/08 06:28:33;;;;;;;1.45;0.60;;;19.50;45.90;;;;;;6215308;28;20145;-69
2022/04/08 06:31:34;;;;;;;2.47;0.63;;;19.50;45.90;;;;;;6197273;28;20141;-69
2022/04/08 06:34:35;;;;;;;1.25;0.60;;;19.50;45.80;;;;;;6180942;28;20482;-69
2022/04/08 06:37:35;;;;;;;6.40;0.80;;;19.50;45.80;;;;;;6170981;28;20062;-68
2022/04/08 06:40:39;;;;;;;0.63;0.47;;;19.50;45.80;;;;;;6170637;28;20058;-69
2022/04/08 06:43:40;;;;;;;1.42;0.60;;;19.50;45.80;;;;;;6179255;28;20050;-69
2022/04/08 06:46:40;;;;;;;1.08;0.60;;;19.50;45.80;;;;;;6194358;28;20099;-69
2022/04/08 06:49:44;;;;;;;0.90;0.50;;;19.60;45.90;;;;;;6194604;28;20035;-69
2022/04/08 06:52:46;;;;;;;4.07;0.60;;;19.50;45.80;;;;;;6194410;28;20030;-68
2022/04/08 06:55:46;;;;;;;1.00;0.60;;;19.50;45.80;;;;;;6193996;28;20077;-68
2022/04/08 06:58:47;;;;;;;2.08;0.70;;;19.60;45.90;;;;;;6194570;28;20038;-69
2022/04/08 07:01:47;;;;;;;1.20;0.57;;;19.60;45.90;;;;;;6194195;28;20073;-69
2022/04/08 07:04:48;;;;;;;1.55;0.90;;;19.50;45.80;;;;;;6198336;28;20536;-69
2022/04/08 07:07:49;;;;;;;0.70;0.57;;;19.60;45.90;;;;;;6198863;28;20325;-68
2022/04/08 07:10:49;;;;;;;0.85;0.45;;;19.50;45.80;;;;;;6198974;28;20065;-69
2022/04/08 07:13:50;;;;;;;1.40;0.63;;;19.60;45.90;;;;;;6198431;28;20038;-68
2022/04/08 07:16:50;;;;;;;1.40;0.60;;;19.50;46.00;;;;;;6197903;28;20074;-68
2022/04/08 07:19:51;;;;;;;2.03;0.85;;;19.50;45.80;;;;;;6198003;28;20354;-68
2022/04/08 07:22:51;;;;;;;2.10;0.70;;;19.50;45.90;;;;;;6191162;28;20432;-68
2022/04/08 07:25:52;;;;;;;1.45;0.60;;;19.50;45.90;;;;;;6217750;28;20149;-68
2022/04/08 07:28:53;;;;;;;0.98;0.65;;;19.50;45.90;;;;;;6203301;28;20042;-68
2022/04/08 07:31:53;;;;;;;0.63;0.47;;;19.50;45.90;;;;;;6197434;28;20061;-68
2022/04/08 07:34:54;;;;;;;1.08;0.50;;;19.50;45.80;;;;;;6197932;28;20034;-68
2022/04/08 07:37:54;;;;;;;1.95;0.70;;;19.50;45.80;;;;;;6207351;28;20025;-68
2022/04/08 07:40:55;;;;;;;1.02;0.50;;;19.50;45.90;;;;;;6221969;28;20432;-68
2022/04/08 07:43:56;;;;;;;3.22;0.68;;;19.50;45.90;;;;;;6206793;28;20065;-68
2022/04/08 07:46:56;;;;;;;2.35;0.95;;;19.50;45.90;;;;;;6198452;28;20036;-69
2022/04/08 07:49:58;;;;;;;1.25;0.57;;;19.50;45.90;;;;;;6198851;28;20469;-68
2022/04/08 07:52:59;;;;;;;0.70;0.57;;;19.50;45.90;;;;;;6198580;28;20026;-68
2022/04/08 07:55:59;;;;;;;1.33;0.80;;;19.60;46.00;;;;;;6197669;28;20120;-68
2022/04/08 07:59:00;;;;;;;1.00;0.68;;;19.60;46.00;;;;;;6197835;28;20400;-69
2022/04/08 08:02:00;;;;;;;1.15;0.68;;;19.50;45.90;;;;;;6197869;28;20564;-68
2022/04/08 08:05:01;;;;;;;2.47;0.60;;;19.60;46.00;;;;;;6197381;28;20098;-68
2022/04/08 08:08:02;;;;;;;0.68;0.50;;;19.60;46.10;;;;;;6198087;28;20038;-68
2022/04/08 08:11:06;;;;;;;2.65;0.70;;;19.50;46.00;;;;;;6197990;28;20105;-68
2022/04/08 08:14:07;;;;;;;0.97;0.70;;;19.50;46.00;;;;;;6195843;28;20121;-68
2022/04/08 08:17:07;;;;;;;1.02;0.52;;;19.60;46.10;;;;;;6197845;28;20301;-68
2022/04/08 08:20:10;;;;;;;0.73;0.60;;;19.50;46.00;;;;;;6198054;28;20037;-69
2022/04/08 08:23:10;;;;;;;1.10;0.60;;;19.60;46.10;;;;;;6197930;28;20462;-68
2022/04/08 08:26:13;;;;;;;1.23;0.80;;;19.50;46.00;;;;;;6168656;28;20048;-68
2022/04/08 08:29:14;;;;;;;1.63;0.80;;;19.60;46.10;;;;;;6195422;28;20054;-68
2022/04/08 08:32:14;;;;;;;1.33;0.80;;;19.60;46.00;;;;;;6195967;28;20041;-68
2022/04/08 08:35:17;;;;;;;1.27;0.75;;;19.60;45.80;;;;;;6196737;28;20053;-68
2022/04/08 08:38:18;;;;;;;1.63;0.70;;;19.70;45.70;;;;;;6197204;28;20508;-68
2022/04/08 08:41:20;;;;;;;1.55;0.98;;;19.70;45.60;;;;;;6195967;28;20540;-68
2022/04/08 08:44:20;;;;;;;0.80;0.63;;;19.70;45.80;;;;;;6197875;28;20109;-68
2022/04/08 08:47:21;;;;;;;1.15;0.70;;;19.70;45.80;;;;;;6198206;28;20076;-68
2022/04/08 08:50:22;;;;;;;1.92;0.77;;;19.70;45.80;;;;;;6197677;28;20027;-68
2022/04/08 08:53:23;;;;;;;3.05;0.80;;;19.60;45.80;;;;;;6197747;28;20452;-68
2022/04/08 08:56:24;;;;;;;2.08;0.77;;;19.70;45.80;;;;;;6197855;28;20053;-68
2022/04/08 08:59:26;;;;;;;1.17;0.65;;;19.60;45.80;;;;;;6198093;28;20165;-68
2022/04/08 09:02:26;;;;;;;1.30;0.90;;;19.60;45.80;;;;;;6191661;28;20843;-68
2022/04/08 09:05:27;;;;;;;1.27;0.68;;;19.60;45.90;;;;;;6190342;28;20058;-68
2022/04/08 09:08:32;;;;;;;0.93;0.60;;;19.60;45.90;;;;;;6191214;28;20030;-68
2022/04/08 09:11:33;;;;;;;2.05;0.93;;;19.60;45.90;;;;;;6205502;28;20033;-68
2022/04/08 09:14:35;;;;;;;2.55;0.95;;;19.60;45.90;;;;;;6197222;28;20030;-68
2022/04/08 09:17:35;;;;;;;2.10;0.70;;;19.60;45.90;;;;;;6196204;28;20039;-68
2022/04/08 09:20:44;;;;;;;3.08;0.95;;;19.60;45.60;;;;;;6196234;28;20026;-68
2022/04/08 09:23:45;;;;;;;6.00;1.30;;;19.60;44.90;;;;;;6196008;28;20294;-68
2022/04/08 09:26:51;;;;;;;3.63;1.30;;;19.60;44.60;;;;;;6203270;28;20027;-68
2022/04/08 09:29:56;;;;;;;7.13;1.92;;;19.60;43.30;;;;;;6213616;28;20046;-68
2022/04/08 09:32:56;;;;;;;6.90;1.95;;;19.60;42.60;;;;;;6197190;28;20156;-68
2022/04/08 09:35:58;;;;;;;8.25;2.03;;;19.60;43.10;;;;;;6197321;28;20049;-68
2022/04/08 09:38:59;;;;;;;5.75;1.60;;;19.60;42.60;;;;;;6196946;28;20444;-68
2022/04/08 09:42:03;;;;;;;5.85;1.85;;;19.60;42.10;;;;;;6196415;28;20027;-68
2022/04/08 09:45:04;;;;;;;7.35;1.52;;;19.60;41.90;;;;;;6196594;28;20048;-68
2022/04/08 09:48:07;;;;;;;5.68;1.67;;;19.60;41.50;;;;;;6196862;28;20022;-68
2022/04/08 09:51:09;;;;;;;4.40;1.60;;;19.60;41.30;;;;;;6196595;28;20110;-68
2022/04/08 09:54:14;;;;;;;7.40;1.58;;;19.60;41.30;;;;;;6196724;28;20030;-68
2022/04/08 09:57:17;;;;;;;8.93;2.10;;;19.50;41.10;;;;;;6197690;28;20465;-68
2022/04/08 10:00:18;;;;;;;8.50;1.80;;;19.50;41.40;;;;;;6196692;28;20515;-68
2022/04/08 10:03:19;;;;;;;4.90;1.88;;;19.50;41.20;;;;;;6196615;28;20089;-68
2022/04/08 10:06:21;;;;;;;6.03;2.15;;;19.50;41.30;;;;;;6196581;28;20509;-68
2022/04/08 10:09:24;;;;;;;6.82;1.83;;;19.50;41.30;;;;;;6196178;28;20385;-68
2022/04/08 10:12:42;;;;;;;7.65;1.95;;;19.50;40.70;;;;;;6196041;28;20042;-68
2022/04/08 10:15:50;;;;;;;9.57;1.50;;;19.50;40.80;;;;;;6190445;28;20034;-67
2022/04/08 10:18:52;;;;;;;3.95;1.35;;;19.50;41.70;;;;;;6195482;28;20034;-68
2022/04/08 10:21:55;;;;;;;10.70;1.73;;;19.50;41.20;;;;;;6195391;28;20038;-68
2022/04/08 10:24:56;;;;;;;8.50;1.63;;;19.50;40.10;;;;;;6195748;28;20034;-68
2022/04/08 10:28:00;;;;;;;8.27;1.90;;;19.50;40.20;;;;;;6212425;28;20053;-68
2022/04/08 10:31:01;;;;;;;5.40;1.20;;;19.50;40.10;;;;;;6203149;28;20018;-68
2022/04/08 10:34:02;;;;;;;7.72;1.70;;;19.50;39.80;;;;;;6196504;28;20489;-68
2022/04/08 10:37:17;;;;;;;4.63;1.40;;;19.50;39.60;;;;;;6196297;28;20045;-68
2022/04/08 10:40:19;;;;;;;5.93;1.50;;;19.60;39.90;;;;;;6200886;28;20018;-68
2022/04/08 10:43:20;;;;;;;4.45;1.30;;;19.50;40.00;;;;;;6199861;28;20089;-68
2022/04/08 10:46:29;;;;;;;5.32;1.38;;;19.60;40.40;;;;;;6201199;28;20026;-68
2022/04/08 10:49:30;;;;;;;5.82;2.00;;;19.60;40.70;;;;;;6201218;28;20022;-68
2022/04/08 10:52:39;;;;;;;6.18;1.67;;;19.60;41.00;;;;;;6200755;28;20405;-68
2022/04/08 10:55:53;;;;;;;5.38;1.73;;;19.60;41.20;;;;;;6200828;28;20125;-68
2022/04/08 10:58:59;;;;;;;5.07;1.67;;;19.60;41.40;;;;;;6200656;28;20030;-68
2022/04/08 11:02:05;;;;;;;4.28;1.10;;;19.60;41.60;;;;;;6200524;28;20030;-68
2022/04/08 11:05:08;;;;;;;2.78;1.02;;;19.60;41.70;;;;;;6200645;28;20030;-68
2022/04/08 11:08:08;;;;;;;4.35;1.52;;;19.60;41.80;;;;;;6200749;28;20085;-68
2022/04/08 11:11:09;;;;;;;3.50;1.40;;;19.60;41.70;;;;;;6199553;28;20026;-68
2022/04/08 11:14:10;;;;;;;4.25;1.30;;;19.60;41.70;;;;;;6200063;28;20061;-68
2022/04/08 11:17:11;;;;;;;5.30;0.98;;;19.60;41.90;;;;;;6199914;28;20093;-67
2022/04/08 11:20:13;;;;;;;5.18;1.67;;;19.60;42.40;;;;;;6200162;28;20117;-68
2022/04/08 11:23:14;;;;;;;3.22;1.30;;;19.50;42.40;;;;;;6199340;28;20034;-68
2022/04/08 11:26:15;;;;;;;2.97;1.10;;;19.50;41.40;;;;;;6177357;28;20030;-68
2022/04/08 11:29:17;;;;;;;3.20;1.02;;;19.50;41.30;;;;;;6185926;28;20050;-68
2022/04/08 11:32:18;;;;;;;3.53;1.10;;;19.50;41.00;;;;;;6198119;28;20027;-68
2022/04/08 11:35:19;;;;;;;3.38;1.20;;;19.60;40.90;;;;;;6200590;28;20370;-68
2022/04/08 11:38:20;;;;;;;3.42;1.23;;;19.60;41.10;;;;;;6199647;28;20037;-69
2022/04/08 11:41:21;;;;;;;4.70;1.23;;;19.60;41.20;;;;;;6199772;28;20022;-68
2022/04/08 11:44:22;;;;;;;2.33;1.00;;;19.60;41.60;;;;;;6199517;28;20421;-68
2022/04/08 11:47:32;;;;;;;6.45;1.05;;;19.70;41.80;;;;;;6199780;28;20066;-68
2022/04/08 11:50:36;;;;;;;3.20;1.33;;;19.70;41.90;;;;;;6199174;28;20398;-68
2022/04/08 11:53:44;;;;;;;7.82;1.35;;;19.70;41.70;;;;;;6199119;28;20041;-68
2022/04/08 11:56:53;;;;;;;2.30;0.90;;;19.70;41.50;;;;;;6199147;28;20030;-68
2022/04/08 11:59:53;;;;;;;2.53;1.17;;;19.70;41.60;;;;;;6199461;28;20243;-68
2022/04/08 12:02:58;;;;;;;6.40;0.93;;;19.70;41.60;;;;;;6197565;28;20034;-68
2022/04/08 12:06:00;;;;;;;6.32;1.25;;;19.70;41.70;;;;;;6199115;28;20022;-68
2022/04/08 12:09:02;;;;;;;3.28;1.17;;;19.70;41.70;;;;;;6199274;28;20033;-68
2022/04/08 12:12:07;;;;;;;5.57;1.50;;;19.70;41.80;;;;;;6197253;28;20131;-67
2022/04/08 12:15:09;;;;;;;3.05;1.20;;;19.70;41.90;;;;;;6198760;28;20120;-66
2022/04/08 12:18:10;;;;;;;1.92;1.02;;;19.70;42.00;;;;;;6199234;28;20062;-66
2022/04/08 12:21:10;;;;;;;2.45;0.82;;;19.70;42.10;;;;;;6198945;28;20046;-67
2022/04/08 12:24:11;;;;;;;2.05;1.00;;;19.70;42.20;;;;;;6198846;28;20033;-66
2022/04/08 12:27:13;;;;;;;3.10;1.08;;;19.70;42.20;;;;;;6208280;28;20022;-67
2022/04/08 12:30:15;;;;;;;2.53;0.90;;;19.70;42.20;;;;;;6211160;28;20050;-67
2022/04/08 12:33:17;;;;;;;2.58;1.08;;;19.70;42.30;;;;;;6198492;28;20030;-66
2022/04/08 12:36:19;;;;;;;1.70;0.80;;;19.70;42.40;;;;;;6198079;28;20117;-65
2022/04/08 12:39:20;;;;;;;2.83;0.90;;;19.70;42.50;;;;;;6197709;28;20026;-66
2022/04/08 12:42:20;;;;;;;2.13;1.10;;;19.70;42.60;;;;;;6197881;28;20512;-67
2022/04/08 12:45:21;;;;;;;2.92;1.00;;;19.70;42.60;;;;;;6197551;28;20060;-66
2022/04/08 12:48:22;;;;;;;2.08;0.90;;;19.70;42.60;;;;;;6197657;28;20030;-67
2022/04/08 12:51:22;;;;;;;6.72;1.27;;;19.70;42.60;;;;;;6197416;28;20037;-66
2022/04/08 12:54:24;;;;;;;2.83;1.02;;;19.70;42.60;;;;;;6197639;28;20493;-67
2022/04/08 12:57:24;;;;;;;1.60;0.80;;;19.70;42.60;;;;;;6196348;28;20105;-66
2022/04/08 13:00:25;;;;;;;1.85;0.90;;;19.70;42.60;;;;;;6197086;28;20030;-67
2022/04/08 13:03:25;;;;;;;2.10;0.90;;;19.70;42.60;;;;;;6197477;28;20483;-67
2022/04/08 13:06:26;;;;;;;1.92;0.77;;;19.70;42.70;;;;;;6197662;28;20077;-66
2022/04/08 13:09:27;;;;;;;1.63;0.80;;;19.70;42.80;;;;;;6196938;28;20034;-67
2022/04/08 13:12:27;;;;;;;2.53;1.00;;;19.70;42.90;;;;;;6196664;28;20081;-66
2022/04/08 13:15:28;;;;;;;1.73;0.90;;;19.70;43.10;;;;;;6197259;28;20165;-66
2022/04/08 13:18:28;;;;;;;2.65;0.80;;;19.70;43.00;;;;;;6197160;28;20057;-67
2022/04/08 13:21:29;;;;;;;1.48;0.73;;;19.70;43.10;;;;;;6217248;28;20034;-67
2022/04/08 13:24:30;;;;;;;1.90;0.85;;;19.70;43.20;;;;;;6196481;28;20057;-67
2022/04/08 13:27:31;;;;;;;3.90;0.82;;;19.70;43.40;;;;;;6206370;28;20022;-67
2022/04/08 13:30:31;;;;;;;1.98;0.77;;;19.70;43.40;;;;;;6208130;28;20116;-67
2022/04/08 13:33:31;;;;;;;1.42;0.52;;;19.70;43.40;;;;;;6196536;28;20031;-66
2022/04/08 13:36:32;;;;;;;2.90;0.85;;;19.70;43.40;;;;;;6196176;28;20039;-67
2022/04/08 13:39:33;;;;;;;3.17;0.70;;;19.70;43.30;;;;;;6196906;28;20424;-67
2022/04/08 13:42:33;;;;;;;1.95;0.90;;;19.70;43.20;;;;;;6196085;28;20065;-67
2022/04/08 13:45:34;;;;;;;1.80;0.60;;;19.70;43.20;;;;;;6189825;28;20359;-67
2022/04/08 13:48:34;;;;;;;2.17;0.70;;;19.70;43.20;;;;;;6196343;28;20080;-66
2022/04/08 13:51:35;;;;;;;5.18;0.60;;;19.70;43.20;;;;;;6181150;28;20046;-66
2022/04/08 13:54:36;;;;;;;2.75;0.88;;;19.70;43.10;;;;;;6208622;28;20545;-66
2022/04/08 13:57:36;;;;;;;1.52;0.80;;;19.70;43.10;;;;;;6220208;28;20089;-66
2022/04/08 14:00:37;;;;;;;1.15;0.60;;;19.70;43.10;;;;;;6221266;28;20484;-67
2022/04/08 14:03:37;;;;;;;2.10;0.80;;;19.70;43.10;;;;;;6220319;28;20034;-66
2022/04/08 14:06:38;;;;;;;1.88;0.82;;;19.70;42.90;;;;;;6210551;28;20271;-67
2022/04/08 14:09:39;;;;;;;2.83;1.10;;;19.70;42.50;;;;;;6195426;28;20381;-67
2022/04/08 14:12:40;;;;;;;2.03;0.93;;;19.70;41.70;;;;;;6195154;28;20031;-67
2022/04/08 14:15:40;;;;;;;5.95;1.02;;;19.70;41.30;;;;;;6214931;28;20413;-67
2022/04/08 14:18:41;;;;;;;3.03;1.02;;;19.70;40.80;;;;;;6219787;28;20026;-67
2022/04/08 14:21:41;;;;;;;2.58;0.98;;;19.70;40.20;;;;;;6197870;28;20033;-67
2022/04/08 14:24:42;;;;;;;6.30;1.13;;;19.70;40.30;;;;;;6196034;28;20058;-66
2022/04/08 14:27:42;;;;;;;5.03;1.05;;;19.70;40.20;;;;;;6198554;28;20026;-66
2022/04/08 14:30:43;;;;;;;3.22;0.90;;;19.70;40.50;;;;;;6205550;28;20080;-66
2022/04/08 14:33:43;;;;;;;3.42;1.00;;;19.70;40.70;;;;;;6195812;28;20354;-66
2022/04/08 14:36:45;;;;;;;9.82;1.13;;;19.70;40.90;;;;;;6195394;28;20056;-66
2022/04/08 14:39:46;;;;;;;4.75;1.20;;;19.70;40.90;;;;;;6197492;28;20038;-67
2022/04/08 14:42:46;;;;;;;2.72;0.80;;;19.70;41.10;;;;;;6217451;28;20092;-67
2022/04/08 14:45:47;;;;;;;5.30;0.90;;;19.70;41.30;;;;;;6195189;28;20027;-65
2022/04/08 14:48:47;;;;;;;8.35;1.30;;;19.70;41.40;;;;;;6195798;28;20478;-66
2022/04/08 14:51:48;;;;;;;3.60;1.27;;;19.70;41.60;;;;;;6195655;28;20105;-67
2022/04/08 14:54:48;;;;;;;1.60;0.80;;;19.70;41.70;;;;;;6195404;28;20359;-67
2022/04/08 14:57:49;;;;;;;3.60;1.10;;;19.70;41.80;;;;;;6195759;28;20026;-67
2022/04/08 15:00:49;;;;;;;5.70;1.15;;;19.70;41.90;;;;;;6195586;28;20026;-66
2022/04/08 15:03:52;;;;;;;3.42;1.00;;;19.70;42.00;;;;;;6195397;28;20026;-67
2022/04/08 15:06:52;;;;;;;4.88;0.82;;;19.70;42.20;;;;;;6195499;28;20088;-67
2022/04/08 15:09:53;;;;;;;7.20;1.10;;;19.70;42.40;;;;;;6195167;28;20090;-67
2022/04/08 15:12:53;;;;;;;2.42;0.65;;;19.70;42.60;;;;;;6195320;28;20033;-67
2022/04/08 15:15:54;;;;;;;3.58;1.25;;;19.70;42.40;;;;;;6195212;28;20106;-67
2022/04/08 15:18:54;;;;;;;5.40;0.93;;;19.70;42.40;;;;;;6169679;28;20085;-67
2022/04/08 15:21:55;;;;;;;6.97;0.90;;;19.70;42.50;;;;;;6178509;28;20073;-66
2022/04/08 15:24:55;;;;;;;1.85;0.98;;;19.70;42.60;;;;;;6196903;28;20064;-66
2022/04/08 15:27:56;;;;;;;1.38;0.70;;;19.70;42.70;;;;;;6210129;28;20413;-66
2022/04/08 15:30:57;;;;;;;4.10;0.73;;;19.70;43.50;;;;;;6199002;28;20018;-66
2022/04/08 15:33:57;;;;;;;3.22;1.02;;;19.60;42.70;;;;;;6199443;28;20501;-67
2022/04/08 15:36:58;;;;;;;5.32;1.10;;;19.60;41.70;;;;;;6199207;28;20041;-66
2022/04/08 15:40:00;;;;;;;4.63;1.25;;;19.70;41.10;;;;;;6199057;28;20064;-67
2022/04/08 15:43:01;;;;;;;4.35;1.30;;;19.70;41.30;;;;;;6198852;28;20026;-67
2022/04/08 15:46:01;;;;;;;4.20;1.20;;;19.70;41.40;;;;;;6199404;28;20033;-67